TAF and METAR

METAR for Rafha Domestic Airport

OERF 290300Z 00000KT CAVOK 23/02 Q1010
Report created 29. sep 05:00
wind 0 knots from N (000°) Clear sky Temperature 23° with dewpoint at 2° (Humidity 25.17%) Pressure 1010 hPa

TAF for Rafha Domestic Airport

TAF OERF 282300Z 2900/3006 28010KT CAVOK BECMG 2905/2907 35018KT BECMG 2916/2918 30008KT
Report created 29. sep 01:00

between 29. sep 02:00 - 30. sep 08:00

wind 10 knots from W (280°) Clear sky

becoming between 29. sep 07:00 - 29. sep 09:00

wind 18 knots from N (350°)

becoming between 29. sep 18:00 - 29. sep 20:00

wind 8 knots from WNW (300°)